Portada
METAR-TAF:

METAR-TAF

Aeroports :

Chiclayo, Perú

latitud: 06-47S, longitud: 079-50W, altitud: 29 m

Observació

L'informe es va fer fa 3 hores i 29 minuts, a les 23:00 UTC
Vent 19 kt del Sud
Temperatura 20°C
Humitat 78%
Pressió 1013 hPa
Visibilitat 10 km o més
Núvols disperses a una alçada de 1200 ft

METAR: SPHI 262300Z 18019KT 9999 SCT012 20/16 Q1013 RMK BIRD HAZARD RWY 19/01 PP000

Hora: 21:29 (02:29 UTC)

Pronòstic

L'informe es va fer fa 9 hores i 29 minuts, a les 17:00 UTC
Pronòstic vàlid del 26 a les 18 UTC al 27 a les 18 UTC
Vent 14 kt del Sud
Visibilitat 10 km o més
Cel ennuvolat a una alçada de 2000 ft
A partir de les 27 a les 1030 UTC
Vent 8 kt del Sud
Visibilitat 10 km o més
Núvols disperses a una alçada de 1000 ft
Cel ennuvolat a una alçada de 1500 ft
Evolucionant progressivament
l' 27 a les 15 UTC al 27 a les 17 UTC
Cel ennuvolat a una alçada de 2000 ft

TAF: SPHI 261700Z 2618/2718 18014KT 9999 BKN020 TX23/2619Z TN17/2711Z FM271030 18008KT 9999 SCT010 BKN015 BECMG 2715/2717 BKN020

Observacions i pronòstics meteorològics de més de 4000 aeroports (METAR i TAF).

Les estacions disponibles són els punts grocs i vermells al mapa.

Posi el ratolí al punt desitjat per veure el nom de l'estació.

Feu clic per veure les observacions i els pronòstics meteorològics.

Per canviar el mapa: feu clic els botons verds amb una creu de color negre per apropar; al botó verd amb un guió per allunyar la imatge; o en les fletxes verdes per a mapes adjacents.


METAR-TAF: